Time,TemperatureF,DewpointF,PressureIn,WindDirection,WindDirectionDegrees,WindSpeedMPH,WindSpeedGustMPH,Humidity,HourlyPrecipIn,Conditions,Clouds,dailyrainin,SoftwareType,DateUTC
2013-04-07 00:03:00,69.0,66.0,-100.00,NE,41,1.0,4.0,89,0.00,,,0.00,,2013-04-07 10:03:00,
2013-04-07 00:13:00,69.0,66.0,-100.00,NE,41,1.0,4.0,89,0.00,,,0.00,,2013-04-07 10:13:00,
2013-04-07 00:22:00,69.0,66.0,-100.00,NE,41,1.0,4.0,89,0.00,,,0.00,,2013-04-07 10:22:00,
2013-04-07 00:33:00,69.0,66.0,-100.00,NE,41,1.0,4.0,89,0.00,,,0.00,,2013-04-07 10:33:00,
2013-04-07 00:41:00,68.0,66.0,-100.00,NNE,19,2.0,7.0,92,0.00,,,0.00,,2013-04-07 10:41:00,
2013-04-07 01:02:00,68.0,66.0,-100.00,NNE,19,2.0,7.0,92,0.00,,,0.00,,2013-04-07 11:02:00,
2013-04-07 01:12:00,68.0,66.0,-100.00,NNE,19,2.0,7.0,92,0.00,,,0.00,,2013-04-07 11:12:00,
2013-04-07 01:22:00,68.0,66.0,-100.00,NNE,19,2.0,7.0,92,0.00,,,0.00,,2013-04-07 11:22:00,
2013-04-07 01:32:00,68.0,66.0,-100.00,NNE,19,2.0,7.0,92,0.00,,,0.00,,2013-04-07 11:32:00,
2013-04-07 01:41:00,68.0,65.0,-100.00,NNW,328,3.0,5.0,89,0.00,,,0.00,,2013-04-07 11:41:00,
2013-04-07 02:02:00,68.0,65.0,-100.00,NNW,328,3.0,5.0,89,0.00,,,0.00,,2013-04-07 12:02:00,
2013-04-07 02:12:00,68.0,65.0,-100.00,NNW,328,3.0,5.0,89,0.00,,,0.00,,2013-04-07 12:12:00,
2013-04-07 02:22:00,68.0,65.0,-100.00,NNW,328,3.0,5.0,89,0.00,,,0.00,,2013-04-07 12:22:00,
2013-04-07 02:33:00,68.0,65.0,-100.00,NNW,328,3.0,5.0,89,0.00,,,0.00,,2013-04-07 12:33:00,
2013-04-07 02:41:00,67.0,64.0,-100.00,NNW,345,3.0,6.0,90,0.00,,,0.00,,2013-04-07 12:41:00,
2013-04-07 03:03:00,67.0,64.0,-100.00,NNW,345,3.0,6.0,90,0.00,,,0.00,,2013-04-07 13:03:00,
2013-04-07 03:13:00,67.0,64.0,-100.00,NNW,345,3.0,6.0,90,0.00,,,0.00,,2013-04-07 13:13:00,
2013-04-07 03:22:00,67.0,64.0,-100.00,NNW,345,3.0,6.0,90,0.00,,,0.00,,2013-04-07 13:22:00,
2013-04-07 03:32:00,67.0,64.0,-100.00,NNW,345,3.0,6.0,90,0.00,,,0.00,,2013-04-07 13:32:00,
2013-04-07 03:41:00,68.0,65.0,-100.00,North,352,5.0,8.0,91,0.00,,,0.00,,2013-04-07 13:41:00,
2013-04-07 04:02:00,68.0,65.0,-100.00,North,352,5.0,8.0,91,0.00,,,0.00,,2013-04-07 14:02:00,
2013-04-07 04:12:00,68.0,65.0,-100.00,North,352,5.0,8.0,91,0.00,,,0.00,,2013-04-07 14:12:00,
2013-04-07 04:22:00,68.0,65.0,-100.00,North,352,5.0,8.0,91,0.00,,,0.00,,2013-04-07 14:22:00,
2013-04-07 04:32:00,68.0,65.0,-100.00,North,352,5.0,8.0,91,0.00,,,0.00,,2013-04-07 14:32:00,
2013-04-07 04:41:00,67.0,64.0,-100.00,North,9,3.0,7.0,91,0.00,,,0.00,,2013-04-07 14:41:00,
2013-04-07 05:02:00,67.0,64.0,-100.00,North,9,3.0,7.0,91,0.00,,,0.00,,2013-04-07 15:02:00,
2013-04-07 05:12:00,67.0,64.0,-100.00,North,9,3.0,7.0,91,0.00,,,0.00,,2013-04-07 15:12:00,
2013-04-07 05:22:00,67.0,64.0,-100.00,North,9,3.0,7.0,91,0.00,,,0.00,,2013-04-07 15:22:00,
2013-04-07 05:33:00,67.0,64.0,-100.00,North,9,3.0,7.0,91,0.00,,,0.00,,2013-04-07 15:33:00,
2013-04-07 05:41:00,68.0,65.0,-100.00,North,4,5.0,7.0,91,0.00,,,0.00,,2013-04-07 15:41:00,
2013-04-07 06:03:00,68.0,65.0,-100.00,North,4,5.0,7.0,91,0.00,,,0.00,,2013-04-07 16:03:00,
2013-04-07 06:13:00,68.0,65.0,-100.00,North,4,5.0,7.0,91,0.00,,,0.00,,2013-04-07 16:13:00,
2013-04-07 06:23:00,68.0,65.0,-100.00,North,4,5.0,7.0,91,0.00,,,0.00,,2013-04-07 16:23:00,
2013-04-07 06:33:00,68.0,65.0,-100.00,North,4,5.0,7.0,91,0.00,,,0.00,,2013-04-07 16:33:00,
2013-04-07 06:41:00,67.0,64.0,-100.00,North,356,5.0,8.0,91,0.00,,,0.00,,2013-04-07 16:41:00,
2013-04-07 07:13:00,67.0,64.0,-100.00,North,356,5.0,8.0,91,0.00,,,0.00,,2013-04-07 17:13:00,
2013-04-07 07:22:00,67.0,64.0,-100.00,North,356,5.0,8.0,91,0.00,,,0.00,,2013-04-07 17:22:00,
2013-04-07 07:32:00,67.0,64.0,-100.00,North,356,5.0,8.0,91,0.00,,,0.00,,2013-04-07 17:32:00,
2013-04-07 07:41:00,72.0,67.0,-100.00,North,349,4.0,7.0,84,0.00,,,0.00,,2013-04-07 17:41:00,
2013-04-07 08:02:00,72.0,67.0,-100.00,North,349,4.0,7.0,84,0.00,,,0.00,,2013-04-07 18:02:00,
2013-04-07 08:13:00,72.0,67.0,-100.00,North,349,4.0,7.0,84,0.00,,,0.00,,2013-04-07 18:13:00,
2013-04-07 08:22:00,72.0,67.0,-100.00,North,349,4.0,7.0,84,0.00,,,0.00,,2013-04-07 18:22:00,
2013-04-07 08:32:00,72.0,67.0,-100.00,North,349,4.0,7.0,84,0.00,,,0.00,,2013-04-07 18:32:00,
2013-04-07 08:41:00,78.0,68.0,-100.00,NNW,339,5.0,8.0,72,0.00,,,0.00,,2013-04-07 18:41:00,
2013-04-07 09:02:00,78.0,68.0,-100.00,NNW,339,5.0,8.0,72,0.00,,,0.00,,2013-04-07 19:02:00,
2013-04-07 09:12:00,78.0,68.0,-100.00,NNW,339,5.0,8.0,72,0.00,,,0.00,,2013-04-07 19:12:00,
2013-04-07 09:22:00,78.0,68.0,-100.00,NNW,339,5.0,8.0,72,0.00,,,0.00,,2013-04-07 19:22:00,
2013-04-07 09:32:00,78.0,68.0,-100.00,NNW,339,5.0,8.0,72,0.00,,,0.00,,2013-04-07 19:32:00,
2013-04-07 09:41:00,83.0,69.0,-100.00,East,99,10.0,15.0,62,0.00,,,0.00,,2013-04-07 19:41:00,
2013-04-07 10:02:00,83.0,69.0,-100.00,East,99,10.0,15.0,62,0.00,,,0.00,,2013-04-07 20:02:00,
2013-04-07 10:13:00,83.0,69.0,-100.00,East,99,10.0,15.0,62,0.00,,,0.00,,2013-04-07 20:13:00,
2013-04-07 10:22:00,83.0,69.0,-100.00,East,99,10.0,15.0,62,0.00,,,0.00,,2013-04-07 20:22:00,
2013-04-07 10:32:00,83.0,69.0,-100.00,East,99,10.0,15.0,62,0.00,,,0.00,,2013-04-07 20:32:00,
2013-04-07 10:41:00,83.0,66.0,-100.00,ENE,76,10.0,17.0,57,0.00,,,0.00,,2013-04-07 20:41:00,
2013-04-07 11:03:00,83.0,66.0,-100.00,ENE,76,10.0,17.0,57,0.00,,,0.00,,2013-04-07 21:03:00,
2013-04-07 11:13:00,83.0,66.0,-100.00,ENE,76,10.0,17.0,57,0.00,,,0.00,,2013-04-07 21:13:00,
2013-04-07 11:22:00,83.0,66.0,-100.00,ENE,76,10.0,17.0,57,0.00,,,0.00,,2013-04-07 21:22:00,
2013-04-07 11:33:00,83.0,66.0,-100.00,ENE,76,10.0,17.0,57,0.00,,,0.00,,2013-04-07 21:33:00,
2013-04-07 11:41:00,86.0,67.0,-100.00,East,84,11.0,16.0,54,0.00,,,0.00,,2013-04-07 21:41:00,
2013-04-07 12:03:00,86.0,67.0,-100.00,East,84,11.0,16.0,54,0.00,,,0.00,,2013-04-07 22:03:00,
2013-04-07 12:13:00,86.0,67.0,-100.00,East,84,11.0,16.0,54,0.00,,,0.00,,2013-04-07 22:13:00,
2013-04-07 12:23:00,86.0,67.0,-100.00,East,84,11.0,16.0,54,0.00,,,0.00,,2013-04-07 22:23:00,
2013-04-07 12:33:00,86.0,67.0,-100.00,East,84,11.0,16.0,54,0.00,,,0.00,,2013-04-07 22:33:00,
2013-04-07 12:41:00,85.0,65.0,-100.00,East,79,10.0,17.0,51,0.00,,,0.00,,2013-04-07 22:41:00,
2013-04-07 13:03:00,85.0,65.0,-100.00,East,79,10.0,17.0,51,0.00,,,0.00,,2013-04-07 23:03:00,
2013-04-07 13:12:00,85.0,65.0,-100.00,East,79,10.0,17.0,51,0.00,,,0.00,,2013-04-07 23:12:00,
2013-04-07 13:22:00,85.0,65.0,-100.00,East,79,10.0,17.0,51,0.00,,,0.00,,2013-04-07 23:22:00,
2013-04-07 13:32:00,85.0,65.0,-100.00,East,79,10.0,17.0,51,0.00,,,0.00,,2013-04-07 23:32:00,
2013-04-07 13:41:00,86.0,66.0,-100.00,ENE,58,10.0,16.0,52,0.00,,,0.00,,2013-04-07 23:41:00,
2013-04-07 14:02:00,86.0,66.0,-100.00,ENE,58,10.0,16.0,52,0.00,,,0.00,,2013-04-08 00:02:00,
2013-04-07 14:12:00,86.0,66.0,-100.00,ENE,58,10.0,16.0,52,0.00,,,0.00,,2013-04-08 00:12:00,
2013-04-07 14:22:00,86.0,66.0,-100.00,ENE,58,10.0,16.0,52,0.00,,,0.00,,2013-04-08 00:22:00,
2013-04-07 14:32:00,86.0,66.0,-100.00,ENE,58,10.0,16.0,52,0.00,,,0.00,,2013-04-08 00:32:00,
2013-04-07 14:41:00,86.0,65.0,-100.00,ENE,65,10.0,17.0,50,0.00,,,0.00,,2013-04-08 00:41:00,
2013-04-07 15:02:00,86.0,65.0,-100.00,ENE,65,10.0,17.0,50,0.00,,,0.00,,2013-04-08 01:02:00,
2013-04-07 15:12:00,86.0,65.0,-100.00,ENE,65,10.0,17.0,50,0.00,,,0.00,,2013-04-08 01:12:00,
2013-04-07 15:22:00,86.0,65.0,-100.00,ENE,65,10.0,17.0,50,0.00,,,0.00,,2013-04-08 01:22:00,
2013-04-07 15:32:00,86.0,65.0,-100.00,ENE,65,10.0,17.0,50,0.00,,,0.00,,2013-04-08 01:32:00,
2013-04-07 15:41:00,84.0,64.0,-100.00,ENE,75,10.0,18.0,52,0.00,,,0.00,,2013-04-08 01:41:00,
2013-04-07 16:02:00,84.0,64.0,-100.00,ENE,75,10.0,18.0,52,0.00,,,0.00,,2013-04-08 02:02:00,
2013-04-07 16:12:00,84.0,64.0,-100.00,ENE,75,10.0,18.0,52,0.00,,,0.00,,2013-04-08 02:12:00,
2013-04-07 16:22:00,84.0,64.0,-100.00,ENE,75,10.0,18.0,52,0.00,,,0.00,,2013-04-08 02:22:00,
2013-04-07 16:32:00,84.0,64.0,-100.00,ENE,75,10.0,18.0,52,0.00,,,0.00,,2013-04-08 02:32:00,
2013-04-07 16:41:00,82.0,65.0,-100.00,NE,51,10.0,19.0,56,0.00,,,0.00,,2013-04-08 02:41:00,
2013-04-07 17:14:00,82.0,65.0,-100.00,NE,51,10.0,19.0,56,0.00,,,0.00,,2013-04-08 03:14:00,
2013-04-07 17:23:00,82.0,65.0,-100.00,NE,51,10.0,19.0,56,0.00,,,0.00,,2013-04-08 03:23:00,
2013-04-07 17:33:00,82.0,65.0,-100.00,NE,51,10.0,19.0,56,0.00,,,0.00,,2013-04-08 03:33:00,
2013-04-07 17:41:00,80.0,65.0,-100.00,ENE,64,10.0,18.0,61,0.00,,,0.00,,2013-04-08 03:41:00,
2013-04-07 18:03:00,80.0,65.0,-100.00,ENE,64,10.0,18.0,61,0.00,,,0.00,,2013-04-08 04:03:00,
2013-04-07 18:12:00,80.0,65.0,-100.00,ENE,64,10.0,18.0,61,0.00,,,0.00,,2013-04-08 04:12:00,
2013-04-07 18:23:00,80.0,65.0,-100.00,ENE,64,10.0,18.0,61,0.00,,,0.00,,2013-04-08 04:23:00,
2013-04-07 18:33:00,80.0,65.0,-100.00,ENE,64,10.0,18.0,61,0.00,,,0.00,,2013-04-08 04:33:00,
2013-04-07 18:41:00,76.0,63.0,-100.00,ENE,57,7.0,17.0,64,0.00,,,0.00,,2013-04-08 04:41:00,
2013-04-07 19:02:00,76.0,63.0,-100.00,ENE,57,7.0,17.0,64,0.00,,,0.00,,2013-04-08 05:02:00,
2013-04-07 19:12:00,76.0,63.0,-100.00,ENE,57,7.0,17.0,64,0.00,,,0.00,,2013-04-08 05:12:00,
2013-04-07 19:22:00,76.0,63.0,-100.00,ENE,57,7.0,17.0,64,0.00,,,0.00,,2013-04-08 05:22:00,
2013-04-07 19:32:00,76.0,63.0,-100.00,ENE,57,7.0,17.0,64,0.00,,,0.00,,2013-04-08 05:32:00,
2013-04-07 19:41:00,74.0,65.0,-100.00,East,85,7.0,14.0,73,0.00,,,0.00,,2013-04-08 05:41:00,
2013-04-07 20:02:00,74.0,65.0,-100.00,East,85,7.0,14.0,73,0.00,,,0.00,,2013-04-08 06:02:00,
2013-04-07 20:12:00,74.0,65.0,-100.00,East,85,7.0,14.0,73,0.00,,,0.00,,2013-04-08 06:12:00,
2013-04-07 20:22:00,74.0,65.0,-100.00,East,85,7.0,14.0,73,0.00,,,0.00,,2013-04-08 06:22:00,
2013-04-07 20:32:00,74.0,65.0,-100.00,East,85,7.0,14.0,73,0.00,,,0.00,,2013-04-08 06:32:00,
2013-04-07 20:41:00,73.0,65.0,-100.00,NE,53,3.0,10.0,75,0.00,,,0.00,,2013-04-08 06:41:00,
2013-04-07 21:02:00,73.0,65.0,-100.00,NE,53,3.0,10.0,75,0.00,,,0.00,,2013-04-08 07:02:00,
2013-04-07 21:12:00,73.0,65.0,-100.00,NE,53,3.0,10.0,75,0.00,,,0.00,,2013-04-08 07:12:00,
2013-04-07 21:22:00,73.0,65.0,-100.00,NE,53,3.0,10.0,75,0.00,,,0.00,,2013-04-08 07:22:00,
2013-04-07 21:32:00,73.0,65.0,-100.00,NE,53,3.0,10.0,75,0.00,,,0.00,,2013-04-08 07:32:00,
2013-04-07 21:41:00,72.0,64.0,-100.00,NNW,341,3.0,7.0,77,0.00,,,0.00,,2013-04-08 07:41:00,
2013-04-07 22:02:00,72.0,64.0,-100.00,NNW,341,3.0,7.0,77,0.00,,,0.00,,2013-04-08 08:02:00,
2013-04-07 22:12:00,72.0,64.0,-100.00,NNW,341,3.0,7.0,77,0.00,,,0.00,,2013-04-08 08:12:00,
2013-04-07 22:22:00,72.0,64.0,-100.00,NNW,341,3.0,7.0,77,0.00,,,0.00,,2013-04-08 08:22:00,
2013-04-07 22:32:00,72.0,64.0,-100.00,NNW,341,3.0,7.0,77,0.00,,,0.00,,2013-04-08 08:32:00,
2013-04-07 22:41:00,70.0,65.0,-100.00,North,352,4.0,5.0,83,0.00,,,0.00,,2013-04-08 08:41:00,
2013-04-07 23:02:00,70.0,65.0,-100.00,North,352,4.0,5.0,83,0.00,,,0.00,,2013-04-08 09:02:00,
2013-04-07 23:12:00,70.0,65.0,-100.00,North,352,4.0,5.0,83,0.00,,,0.00,,2013-04-08 09:12:00,
2013-04-07 23:22:00,70.0,65.0,-100.00,North,352,4.0,5.0,83,0.00,,,0.00,,2013-04-08 09:22:00,
2013-04-07 23:33:00,70.0,65.0,-100.00,North,352,4.0,5.0,83,0.00,,,0.00,,2013-04-08 09:33:00,
2013-04-07 23:41:00,69.0,64.0,-100.00,North,358,3.0,6.0,85,0.00,,,0.00,,2013-04-08 09:41:00,